sensor_id;sensor_type;location;lat;lon;timestamp;P1;durP1;ratioP1;P2;durP2;ratioP2
16727;SDS011;8482;54.396;18.590;2023-03-23T06:08:18;6.85;;;3.30;;
16727;SDS011;8482;54.396;18.590;2023-03-23T06:10:44;7.10;;;3.60;;
16727;SDS011;8482;54.396;18.590;2023-03-23T06:13:09;6.40;;;3.65;;
16727;SDS011;8482;54.396;18.590;2023-03-23T06:15:35;5.82;;;3.10;;
16727;SDS011;8482;54.396;18.590;2023-03-23T06:18:02;7.03;;;3.80;;
16727;SDS011;8482;54.396;18.590;2023-03-23T06:20:28;7.05;;;4.28;;
16727;SDS011;8482;54.396;18.590;2023-03-23T06:22:55;7.72;;;3.72;;
16727;SDS011;8482;54.396;18.590;2023-03-23T06:25:21;6.93;;;3.20;;
16727;SDS011;8482;54.396;18.590;2023-03-23T06:27:48;5.50;;;3.45;;
16727;SDS011;8482;54.396;18.590;2023-03-23T06:30:14;8.18;;;3.53;;
16727;SDS011;8482;54.396;18.590;2023-03-23T06:32:40;6.53;;;3.67;;
16727;SDS011;8482;54.396;18.590;2023-03-23T06:35:09;7.85;;;3.35;;
16727;SDS011;8482;54.396;18.590;2023-03-23T06:37:36;7.05;;;3.38;;
16727;SDS011;8482;54.396;18.590;2023-03-23T06:40:03;8.25;;;3.80;;
16727;SDS011;8482;54.396;18.590;2023-03-23T06:42:35;7.82;;;3.40;;
16727;SDS011;8482;54.396;18.590;2023-03-23T06:45:02;11.00;;;4.68;;
16727;SDS011;8482;54.396;18.590;2023-03-23T06:47:29;7.68;;;3.90;;
16727;SDS011;8482;54.396;18.590;2023-03-23T06:49:56;6.65;;;3.80;;
16727;SDS011;8482;54.396;18.590;2023-03-23T06:52:23;8.20;;;3.85;;
16727;SDS011;8482;54.396;18.590;2023-03-23T06:54:50;7.95;;;4.10;;
16727;SDS011;8482;54.396;18.590;2023-03-23T06:57:17;7.63;;;3.90;;
16727;SDS011;8482;54.396;18.590;2023-03-23T06:59:44;7.43;;;3.78;;
16727;SDS011;8482;54.396;18.590;2023-03-23T07:02:11;5.93;;;3.47;;
16727;SDS011;8482;54.396;18.590;2023-03-23T07:04:42;7.30;;;3.70;;
16727;SDS011;8482;54.396;18.590;2023-03-23T07:07:08;8.05;;;4.30;;
16727;SDS011;8482;54.396;18.590;2023-03-23T07:09:38;6.47;;;3.65;;
16727;SDS011;8482;54.396;18.590;2023-03-23T07:12:04;6.13;;;3.10;;
16727;SDS011;8482;54.396;18.590;2023-03-23T07:14:31;5.57;;;2.78;;
16727;SDS011;8482;54.396;18.590;2023-03-23T07:16:56;7.72;;;3.67;;
16727;SDS011;8482;54.396;18.590;2023-03-23T07:19:22;7.57;;;3.63;;
16727;SDS011;8482;54.396;18.590;2023-03-23T07:21:48;8.40;;;3.65;;
16727;SDS011;8482;54.396;18.590;2023-03-23T07:24:15;10.13;;;4.38;;
16727;SDS011;8482;54.396;18.590;2023-03-23T07:26:41;7.03;;;3.75;;
16727;SDS011;8482;54.396;18.590;2023-03-23T07:29:08;7.80;;;3.90;;
16727;SDS011;8482;54.396;18.590;2023-03-23T07:31:34;7.80;;;3.97;;
16727;SDS011;8482;54.396;18.590;2023-03-23T07:34:01;8.23;;;3.97;;
16727;SDS011;8482;54.396;18.590;2023-03-23T07:36:28;9.70;;;4.78;;
16727;SDS011;8482;54.396;18.590;2023-03-23T07:38:55;7.20;;;4.20;;
16727;SDS011;8482;54.396;18.590;2023-03-23T07:41:21;8.02;;;4.13;;
16727;SDS011;8482;54.396;18.590;2023-03-23T07:43:47;6.43;;;3.70;;
16727;SDS011;8482;54.396;18.590;2023-03-23T07:46:13;8.15;;;3.85;;
16727;SDS011;8482;54.396;18.590;2023-03-23T07:48:39;6.93;;;4.05;;
16727;SDS011;8482;54.396;18.590;2023-03-23T07:51:05;8.82;;;3.90;;
16727;SDS011;8482;54.396;18.590;2023-03-23T07:53:32;8.55;;;3.90;;
16727;SDS011;8482;54.396;18.590;2023-03-23T07:55:58;6.40;;;3.90;;
16727;SDS011;8482;54.396;18.590;2023-03-23T07:58:26;6.70;;;3.78;;
16727;SDS011;8482;54.396;18.590;2023-03-23T08:00:53;7.85;;;4.47;;
16727;SDS011;8482;54.396;18.590;2023-03-23T08:03:21;7.28;;;3.88;;
16727;SDS011;8482;54.396;18.590;2023-03-23T08:05:47;7.70;;;4.07;;
16727;SDS011;8482;54.396;18.590;2023-03-23T08:08:13;7.90;;;4.82;;
16727;SDS011;8482;54.396;18.590;2023-03-23T08:10:39;7.50;;;4.22;;
16727;SDS011;8482;54.396;18.590;2023-03-23T08:13:05;7.05;;;4.00;;
16727;SDS011;8482;54.396;18.590;2023-03-23T08:15:31;6.72;;;3.60;;
16727;SDS011;8482;54.396;18.590;2023-03-23T08:18:02;6.60;;;3.40;;
16727;SDS011;8482;54.396;18.590;2023-03-23T08:20:28;6.40;;;3.20;;
16727;SDS011;8482;54.396;18.590;2023-03-23T08:22:55;6.25;;;3.25;;
16727;SDS011;8482;54.396;18.590;2023-03-23T08:25:22;6.65;;;4.20;;
16727;SDS011;8482;54.396;18.590;2023-03-23T08:27:52;7.35;;;3.97;;
16727;SDS011;8482;54.396;18.590;2023-03-23T08:30:20;7.82;;;4.05;;
16727;SDS011;8482;54.396;18.590;2023-03-23T08:32:47;6.47;;;4.00;;
16727;SDS011;8482;54.396;18.590;2023-03-23T08:35:15;10.13;;;4.25;;
16727;SDS011;8482;54.396;18.590;2023-03-23T08:37:43;9.50;;;4.20;;
16727;SDS011;8482;54.396;18.590;2023-03-23T08:40:11;7.65;;;3.92;;
16727;SDS011;8482;54.396;18.590;2023-03-23T08:42:39;6.90;;;3.83;;
16727;SDS011;8482;54.396;18.590;2023-03-23T08:45:09;7.63;;;3.85;;
16727;SDS011;8482;54.396;18.590;2023-03-23T08:47:38;7.53;;;4.05;;
16727;SDS011;8482;54.396;18.590;2023-03-23T08:50:06;9.32;;;4.38;;
16727;SDS011;8482;54.396;18.590;2023-03-23T08:52:39;7.40;;;4.05;;
16727;SDS011;8482;54.396;18.590;2023-03-23T08:55:06;7.20;;;4.18;;
16727;SDS011;8482;54.396;18.590;2023-03-23T08:57:33;8.05;;;4.05;;
16727;SDS011;8482;54.396;18.590;2023-03-23T09:00:02;6.95;;;3.80;;
16727;SDS011;8482;54.396;18.590;2023-03-23T09:02:39;7.40;;;3.33;;
16727;SDS011;8482;54.396;18.590;2023-03-23T09:05:07;9.07;;;4.40;;
16727;SDS011;8482;54.396;18.590;2023-03-23T09:07:36;10.35;;;4.40;;
16727;SDS011;8482;54.396;18.590;2023-03-23T09:10:11;8.68;;;3.80;;
16727;SDS011;8482;54.396;18.590;2023-03-23T09:12:41;10.30;;;4.43;;
16727;SDS011;8482;54.396;18.590;2023-03-23T09:15:10;7.35;;;4.35;;
16727;SDS011;8482;54.396;18.590;2023-03-23T09:17:40;6.68;;;3.75;;
16727;SDS011;8482;54.396;18.590;2023-03-23T09:20:14;7.18;;;3.55;;
16727;SDS011;8482;54.396;18.590;2023-03-23T09:22:47;6.55;;;3.38;;
16727;SDS011;8482;54.396;18.590;2023-03-23T09:25:16;6.30;;;3.10;;
16727;SDS011;8482;54.396;18.590;2023-03-23T09:27:48;5.68;;;3.20;;
16727;SDS011;8482;54.396;18.590;2023-03-23T09:30:23;7.40;;;3.45;;
16727;SDS011;8482;54.396;18.590;2023-03-23T09:32:53;8.70;;;3.25;;
16727;SDS011;8482;54.396;18.590;2023-03-23T09:35:25;5.85;;;3.17;;
16727;SDS011;8482;54.396;18.590;2023-03-23T09:37:52;6.68;;;3.30;;
16727;SDS011;8482;54.396;18.590;2023-03-23T09:40:23;8.10;;;3.03;;
16727;SDS011;8482;54.396;18.590;2023-03-23T09:51:01;5.50;;;3.17;;
16727;SDS011;8482;54.396;18.590;2023-03-23T09:53:47;5.03;;;2.83;;
16727;SDS011;8482;54.396;18.590;2023-03-23T09:56:19;6.50;;;3.00;;
16727;SDS011;8482;54.396;18.590;2023-03-23T09:58:52;4.60;;;2.90;;
16727;SDS011;8482;54.396;18.590;2023-03-23T10:01:27;7.50;;;2.78;;
16727;SDS011;8482;54.396;18.590;2023-03-23T10:04:10;6.30;;;3.00;;
16727;SDS011;8482;54.396;18.590;2023-03-23T10:06:52;6.72;;;3.22;;
16727;SDS011;8482;54.396;18.590;2023-03-23T10:09:25;4.97;;;2.80;;
16727;SDS011;8482;54.396;18.590;2023-03-23T10:17:30;5.70;;;2.90;;
16727;SDS011;8482;54.396;18.590;2023-03-23T10:23:12;3.95;;;2.40;;
16727;SDS011;8482;54.396;18.590;2023-03-23T10:25:48;6.10;;;2.50;;
16727;SDS011;8482;54.396;18.590;2023-03-23T10:28:52;5.15;;;3.03;;
16727;SDS011;8482;54.396;18.590;2023-03-23T10:31:28;4.80;;;2.60;;
16727;SDS011;8482;54.396;18.590;2023-03-23T10:34:03;5.97;;;2.85;;
16727;SDS011;8482;54.396;18.590;2023-03-23T10:36:38;4.80;;;2.55;;
16727;SDS011;8482;54.396;18.590;2023-03-23T10:39:23;5.03;;;2.50;;
16727;SDS011;8482;54.396;18.590;2023-03-23T10:41:55;4.07;;;2.25;;
16727;SDS011;8482;54.396;18.590;2023-03-23T10:44:27;4.18;;;1.90;;
16727;SDS011;8482;54.396;18.590;2023-03-23T10:47:02;3.72;;;2.00;;
16727;SDS011;8482;54.396;18.590;2023-03-23T10:49:34;4.85;;;2.00;;
16727;SDS011;8482;54.396;18.590;2023-03-23T10:57:47;4.55;;;2.10;;
16727;SDS011;8482;54.396;18.590;2023-03-23T11:00:30;4.15;;;2.03;;
16727;SDS011;8482;54.396;18.590;2023-03-23T11:06:01;3.35;;;1.85;;
16727;SDS011;8482;54.396;18.590;2023-03-23T11:08:47;4.20;;;1.90;;
16727;SDS011;8482;54.396;18.590;2023-03-23T11:11:32;4.97;;;2.30;;
16727;SDS011;8482;54.396;18.590;2023-03-23T11:17:18;5.18;;;2.33;;
16727;SDS011;8482;54.396;18.590;2023-03-23T11:19:52;4.20;;;1.95;;
16727;SDS011;8482;54.396;18.590;2023-03-23T11:25:01;4.05;;;2.20;;
16727;SDS011;8482;54.396;18.590;2023-03-23T11:27:30;3.00;;;1.63;;
16727;SDS011;8482;54.396;18.590;2023-03-23T11:30:07;3.90;;;1.60;;
16727;SDS011;8482;54.396;18.590;2023-03-23T11:32:43;2.80;;;1.80;;
16727;SDS011;8482;54.396;18.590;2023-03-23T11:35:15;2.97;;;1.90;;
16727;SDS011;8482;54.396;18.590;2023-03-23T11:37:52;3.45;;;2.40;;
16727;SDS011;8482;54.396;18.590;2023-03-23T11:40:26;2.25;;;1.63;;
16727;SDS011;8482;54.396;18.590;2023-03-23T11:43:00;2.58;;;1.80;;
16727;SDS011;8482;54.396;18.590;2023-03-23T11:45:39;3.65;;;1.67;;
16727;SDS011;8482;54.396;18.590;2023-03-23T11:51:13;4.20;;;1.52;;
16727;SDS011;8482;54.396;18.590;2023-03-23T11:56:41;3.75;;;1.60;;
16727;SDS011;8482;54.396;18.590;2023-03-23T11:59:12;2.28;;;1.30;;
16727;SDS011;8482;54.396;18.590;2023-03-23T12:04:33;2.92;;;1.30;;
16727;SDS011;8482;54.396;18.590;2023-03-23T12:18:44;2.45;;;1.45;;
16727;SDS011;8482;54.396;18.590;2023-03-23T12:35:26;4.30;;;1.83;;
16727;SDS011;8482;54.396;18.590;2023-03-23T12:41:14;3.55;;;1.80;;
16727;SDS011;8482;54.396;18.590;2023-03-23T12:43:57;2.55;;;1.75;;
16727;SDS011;8482;54.396;18.590;2023-03-23T12:49:36;2.83;;;1.40;;
16727;SDS011;8482;54.396;18.590;2023-03-23T12:52:17;2.70;;;1.52;;
16727;SDS011;8482;54.396;18.590;2023-03-23T12:57:56;3.75;;;1.23;;
16727;SDS011;8482;54.396;18.590;2023-03-23T13:03:58;2.47;;;1.45;;
16727;SDS011;8482;54.396;18.590;2023-03-23T13:06:34;1.77;;;1.25;;
16727;SDS011;8482;54.396;18.590;2023-03-23T13:11:39;2.80;;;1.20;;
16727;SDS011;8482;54.396;18.590;2023-03-23T13:23:31;2.25;;;1.42;;
16727;SDS011;8482;54.396;18.590;2023-03-23T13:28:54;2.60;;;1.45;;
16727;SDS011;8482;54.396;18.590;2023-03-23T13:31:36;2.50;;;1.35;;
16727;SDS011;8482;54.396;18.590;2023-03-23T13:34:23;2.88;;;1.60;;
16727;SDS011;8482;54.396;18.590;2023-03-23T13:39:37;3.13;;;1.40;;
16727;SDS011;8482;54.396;18.590;2023-03-23T13:47:35;2.95;;;1.50;;
16727;SDS011;8482;54.396;18.590;2023-03-23T13:55:19;3.42;;;1.55;;
16727;SDS011;8482;54.396;18.590;2023-03-23T14:05:36;2.75;;;1.52;;
16727;SDS011;8482;54.396;18.590;2023-03-23T14:10:39;2.65;;;1.50;;
16727;SDS011;8482;54.396;18.590;2023-03-23T14:13:36;2.38;;;1.45;;
16727;SDS011;8482;54.396;18.590;2023-03-23T14:16:23;2.35;;;1.60;;
16727;SDS011;8482;54.396;18.590;2023-03-23T14:19:18;2.08;;;1.42;;
16727;SDS011;8482;54.396;18.590;2023-03-23T14:21:58;2.50;;;1.30;;
16727;SDS011;8482;54.396;18.590;2023-03-23T14:24:33;3.38;;;1.40;;
16727;SDS011;8482;54.396;18.590;2023-03-23T14:27:09;4.03;;;1.75;;
16727;SDS011;8482;54.396;18.590;2023-03-23T14:29:39;4.35;;;1.80;;
16727;SDS011;8482;54.396;18.590;2023-03-23T14:32:07;3.22;;;1.55;;
16727;SDS011;8482;54.396;18.590;2023-03-23T14:34:40;3.13;;;1.67;;
16727;SDS011;8482;54.396;18.590;2023-03-23T14:37:14;2.60;;;1.48;;
16727;SDS011;8482;54.396;18.590;2023-03-23T14:39:44;2.60;;;1.60;;
16727;SDS011;8482;54.396;18.590;2023-03-23T14:42:13;3.08;;;1.73;;
16727;SDS011;8482;54.396;18.590;2023-03-23T14:44:46;3.60;;;1.55;;
16727;SDS011;8482;54.396;18.590;2023-03-23T14:47:22;2.75;;;1.60;;
16727;SDS011;8482;54.396;18.590;2023-03-23T14:50:06;3.40;;;1.50;;
16727;SDS011;8482;54.396;18.590;2023-03-23T14:52:48;2.40;;;1.45;;
16727;SDS011;8482;54.396;18.590;2023-03-23T14:55:21;2.50;;;1.40;;
16727;SDS011;8482;54.396;18.590;2023-03-23T14:57:48;3.88;;;1.70;;
16727;SDS011;8482;54.396;18.590;2023-03-23T15:02:53;4.32;;;1.60;;
16727;SDS011;8482;54.396;18.590;2023-03-23T15:05:37;3.85;;;1.50;;
16727;SDS011;8482;54.396;18.590;2023-03-23T15:08:13;3.17;;;1.67;;
16727;SDS011;8482;54.396;18.590;2023-03-23T15:11:03;2.88;;;1.40;;
16727;SDS011;8482;54.396;18.590;2023-03-23T15:13:42;3.50;;;1.50;;
16727;SDS011;8482;54.396;18.590;2023-03-23T15:16:23;2.17;;;1.40;;
16727;SDS011;8482;54.396;18.590;2023-03-23T15:19:03;3.30;;;1.60;;
16727;SDS011;8482;54.396;18.590;2023-03-23T15:21:56;2.63;;;1.63;;
16727;SDS011;8482;54.396;18.590;2023-03-23T15:24:32;2.30;;;1.55;;
16727;SDS011;8482;54.396;18.590;2023-03-23T15:29:52;4.07;;;1.65;;
16727;SDS011;8482;54.396;18.590;2023-03-23T15:32:30;3.78;;;1.45;;
16727;SDS011;8482;54.396;18.590;2023-03-23T15:35:09;4.60;;;1.98;;
16727;SDS011;8482;54.396;18.590;2023-03-23T15:37:44;3.70;;;1.67;;
16727;SDS011;8482;54.396;18.590;2023-03-23T15:40:17;3.63;;;1.92;;
16727;SDS011;8482;54.396;18.590;2023-03-23T15:42:47;4.75;;;1.80;;
16727;SDS011;8482;54.396;18.590;2023-03-23T15:47:52;3.05;;;1.88;;
16727;SDS011;8482;54.396;18.590;2023-03-23T15:52:51;2.70;;;1.67;;
16727;SDS011;8482;54.396;18.590;2023-03-23T15:55:24;3.90;;;1.98;;
16727;SDS011;8482;54.396;18.590;2023-03-23T15:58:00;6.10;;;1.90;;
16727;SDS011;8482;54.396;18.590;2023-03-23T16:00:34;2.92;;;1.65;;
16727;SDS011;8482;54.396;18.590;2023-03-23T16:03:03;5.30;;;2.13;;
16727;SDS011;8482;54.396;18.590;2023-03-23T16:05:32;3.72;;;1.90;;
16727;SDS011;8482;54.396;18.590;2023-03-23T16:07:59;2.60;;;1.63;;
16727;SDS011;8482;54.396;18.590;2023-03-23T16:10:26;3.92;;;1.63;;
16727;SDS011;8482;54.396;18.590;2023-03-23T16:12:53;2.50;;;1.70;;
16727;SDS011;8482;54.396;18.590;2023-03-23T16:15:19;4.25;;;1.90;;
16727;SDS011;8482;54.396;18.590;2023-03-23T16:17:45;3.35;;;1.77;;
16727;SDS011;8482;54.396;18.590;2023-03-23T16:20:16;3.58;;;1.83;;
16727;SDS011;8482;54.396;18.590;2023-03-23T16:22:46;3.17;;;1.80;;
16727;SDS011;8482;54.396;18.590;2023-03-23T16:25:13;4.05;;;2.03;;
16727;SDS011;8482;54.396;18.590;2023-03-23T16:27:40;3.50;;;1.92;;
16727;SDS011;8482;54.396;18.590;2023-03-23T16:30:18;4.35;;;1.75;;
16727;SDS011;8482;54.396;18.590;2023-03-23T16:32:47;4.07;;;1.92;;
16727;SDS011;8482;54.396;18.590;2023-03-23T16:35:14;3.92;;;2.17;;
16727;SDS011;8482;54.396;18.590;2023-03-23T16:37:44;5.03;;;2.05;;
16727;SDS011;8482;54.396;18.590;2023-03-23T16:40:16;2.97;;;1.60;;
16727;SDS011;8482;54.396;18.590;2023-03-23T16:42:44;4.40;;;2.33;;
16727;SDS011;8482;54.396;18.590;2023-03-23T16:45:11;4.35;;;1.98;;
16727;SDS011;8482;54.396;18.590;2023-03-23T16:47:40;5.13;;;1.67;;
16727;SDS011;8482;54.396;18.590;2023-03-23T16:50:08;3.17;;;1.40;;
16727;SDS011;8482;54.396;18.590;2023-03-23T16:52:38;4.47;;;1.13;;
16727;SDS011;8482;54.396;18.590;2023-03-23T16:55:06;2.15;;;1.00;;
16727;SDS011;8482;54.396;18.590;2023-03-23T16:57:35;3.22;;;1.02;;
16727;SDS011;8482;54.396;18.590;2023-03-23T17:00:06;4.00;;;1.10;;
16727;SDS011;8482;54.396;18.590;2023-03-23T17:02:40;3.25;;;1.00;;
16727;SDS011;8482;54.396;18.590;2023-03-23T17:05:08;3.92;;;1.10;;
16727;SDS011;8482;54.396;18.590;2023-03-23T17:07:36;3.90;;;1.70;;
16727;SDS011;8482;54.396;18.590;2023-03-23T17:10:06;3.17;;;1.50;;
16727;SDS011;8482;54.396;18.590;2023-03-23T17:12:34;3.20;;;1.70;;
16727;SDS011;8482;54.396;18.590;2023-03-23T17:15:01;3.70;;;1.45;;
16727;SDS011;8482;54.396;18.590;2023-03-23T17:17:28;4.13;;;1.63;;
16727;SDS011;8482;54.396;18.590;2023-03-23T17:19:53;3.13;;;1.55;;
16727;SDS011;8482;54.396;18.590;2023-03-23T17:22:20;4.07;;;1.50;;
16727;SDS011;8482;54.396;18.590;2023-03-23T17:24:46;3.15;;;1.60;;
16727;SDS011;8482;54.396;18.590;2023-03-23T17:27:13;3.58;;;1.40;;
16727;SDS011;8482;54.396;18.590;2023-03-23T17:29:43;3.28;;;1.50;;
16727;SDS011;8482;54.396;18.590;2023-03-23T17:32:10;3.17;;;1.60;;
16727;SDS011;8482;54.396;18.590;2023-03-23T17:34:37;2.33;;;1.30;;
16727;SDS011;8482;54.396;18.590;2023-03-23T17:37:03;3.00;;;1.50;;
16727;SDS011;8482;54.396;18.590;2023-03-23T17:39:30;3.65;;;1.80;;
16727;SDS011;8482;54.396;18.590;2023-03-23T17:41:57;2.78;;;1.30;;
16727;SDS011;8482;54.396;18.590;2023-03-23T17:44:24;2.67;;;1.35;;
16727;SDS011;8482;54.396;18.590;2023-03-23T17:46:51;4.05;;;1.65;;
16727;SDS011;8482;54.396;18.590;2023-03-23T17:49:20;2.92;;;1.50;;
16727;SDS011;8482;54.396;18.590;2023-03-23T17:51:47;5.25;;;2.00;;
16727;SDS011;8482;54.396;18.590;2023-03-23T17:54:14;4.47;;;1.88;;
16727;SDS011;8482;54.396;18.590;2023-03-23T17:56:40;3.83;;;1.50;;
16727;SDS011;8482;54.396;18.590;2023-03-23T17:59:06;4.10;;;2.08;;
16727;SDS011;8482;54.396;18.590;2023-03-23T18:01:32;3.67;;;1.80;;
16727;SDS011;8482;54.396;18.590;2023-03-23T18:03:58;4.60;;;2.03;;
16727;SDS011;8482;54.396;18.590;2023-03-23T18:06:26;5.50;;;2.35;;
16727;SDS011;8482;54.396;18.590;2023-03-23T18:08:51;4.13;;;2.13;;
16727;SDS011;8482;54.396;18.590;2023-03-23T18:11:17;5.85;;;2.30;;
16727;SDS011;8482;54.396;18.590;2023-03-23T18:13:43;5.63;;;2.40;;
16727;SDS011;8482;54.396;18.590;2023-03-23T18:16:09;4.75;;;2.25;;
16727;SDS011;8482;54.396;18.590;2023-03-23T18:18:35;5.32;;;2.30;;
16727;SDS011;8482;54.396;18.590;2023-03-23T18:21:05;5.07;;;2.38;;
16727;SDS011;8482;54.396;18.590;2023-03-23T18:23:34;3.92;;;1.88;;
16727;SDS011;8482;54.396;18.590;2023-03-23T18:26:03;5.40;;;2.10;;
16727;SDS011;8482;54.396;18.590;2023-03-23T18:28:31;6.07;;;2.50;;
16727;SDS011;8482;54.396;18.590;2023-03-23T18:31:04;5.22;;;2.47;;
16727;SDS011;8482;54.396;18.590;2023-03-23T18:33:34;5.95;;;2.53;;
16727;SDS011;8482;54.396;18.590;2023-03-23T18:36:02;6.90;;;2.80;;
16727;SDS011;8482;54.396;18.590;2023-03-23T18:38:30;5.13;;;2.47;;
16727;SDS011;8482;54.396;18.590;2023-03-23T18:40:57;5.50;;;2.65;;
16727;SDS011;8482;54.396;18.590;2023-03-23T18:43:23;5.60;;;2.50;;
16727;SDS011;8482;54.396;18.590;2023-03-23T18:45:53;6.13;;;2.83;;
16727;SDS011;8482;54.396;18.590;2023-03-23T18:48:21;6.90;;;2.45;;
16727;SDS011;8482;54.396;18.590;2023-03-23T18:50:49;6.30;;;2.83;;
16727;SDS011;8482;54.396;18.590;2023-03-23T18:53:18;5.72;;;2.78;;
16727;SDS011;8482;54.396;18.590;2023-03-23T18:55:45;5.72;;;3.00;;
16727;SDS011;8482;54.396;18.590;2023-03-23T18:58:14;5.53;;;3.00;;
16727;SDS011;8482;54.396;18.590;2023-03-23T19:00:42;7.18;;;3.22;;
16727;SDS011;8482;54.396;18.590;2023-03-23T19:03:08;5.60;;;2.70;;
16727;SDS011;8482;54.396;18.590;2023-03-23T19:05:35;6.88;;;3.47;;
16727;SDS011;8482;54.396;18.590;2023-03-23T19:08:04;6.15;;;3.25;;
16727;SDS011;8482;54.396;18.590;2023-03-23T19:10:37;6.70;;;3.28;;
16727;SDS011;8482;54.396;18.590;2023-03-23T19:13:06;6.85;;;3.35;;
16727;SDS011;8482;54.396;18.590;2023-03-23T19:15:37;8.85;;;4.00;;
16727;SDS011;8482;54.396;18.590;2023-03-23T19:18:05;6.00;;;3.05;;
16727;SDS011;8482;54.396;18.590;2023-03-23T19:20:32;7.43;;;3.83;;
16727;SDS011;8482;54.396;18.590;2023-03-23T19:22:58;7.75;;;3.63;;
16727;SDS011;8482;54.396;18.590;2023-03-23T19:25:25;6.65;;;3.40;;
16727;SDS011;8482;54.396;18.590;2023-03-23T19:27:51;6.95;;;3.63;;
16727;SDS011;8482;54.396;18.590;2023-03-23T19:30:18;5.95;;;3.30;;
16727;SDS011;8482;54.396;18.590;2023-03-23T19:32:44;7.28;;;3.80;;
16727;SDS011;8482;54.396;18.590;2023-03-23T19:35:10;6.57;;;3.38;;
16727;SDS011;8482;54.396;18.590;2023-03-23T19:37:36;6.50;;;3.67;;
16727;SDS011;8482;54.396;18.590;2023-03-23T19:40:02;7.47;;;3.75;;
16727;SDS011;8482;54.396;18.590;2023-03-23T19:42:30;8.07;;;3.85;;
16727;SDS011;8482;54.396;18.590;2023-03-23T19:44:57;7.25;;;4.43;;
16727;SDS011;8482;54.396;18.590;2023-03-23T19:47:22;9.30;;;4.10;;
16727;SDS011;8482;54.396;18.590;2023-03-23T19:49:48;9.77;;;5.13;;
16727;SDS011;8482;54.396;18.590;2023-03-23T19:52:15;7.72;;;3.90;;
16727;SDS011;8482;54.396;18.590;2023-03-23T19:54:40;8.43;;;4.50;;
16727;SDS011;8482;54.396;18.590;2023-03-23T19:57:06;8.13;;;4.30;;
16727;SDS011;8482;54.396;18.590;2023-03-23T19:59:34;8.70;;;4.43;;
16727;SDS011;8482;54.396;18.590;2023-03-23T20:02:01;9.73;;;4.55;;
16727;SDS011;8482;54.396;18.590;2023-03-23T20:04:27;9.07;;;4.25;;
16727;SDS011;8482;54.396;18.590;2023-03-23T20:06:54;8.73;;;4.32;;
16727;SDS011;8482;54.396;18.590;2023-03-23T20:09:20;8.23;;;3.90;;
16727;SDS011;8482;54.396;18.590;2023-03-23T20:11:46;8.02;;;3.95;;
16727;SDS011;8482;54.396;18.590;2023-03-23T20:14:12;11.20;;;4.63;;
16727;SDS011;8482;54.396;18.590;2023-03-23T20:16:38;7.57;;;3.47;;
16727;SDS011;8482;54.396;18.590;2023-03-23T20:19:04;7.90;;;3.67;;
16727;SDS011;8482;54.396;18.590;2023-03-23T20:21:32;8.77;;;4.07;;
16727;SDS011;8482;54.396;18.590;2023-03-23T20:23:58;8.98;;;4.10;;
16727;SDS011;8482;54.396;18.590;2023-03-23T20:28:54;7.38;;;3.67;;
16727;SDS011;8482;54.396;18.590;2023-03-23T20:31:22;8.55;;;3.50;;
16727;SDS011;8482;54.396;18.590;2023-03-23T20:33:59;11.20;;;4.05;;
16727;SDS011;8482;54.396;18.590;2023-03-23T20:36:35;6.90;;;2.78;;
16727;SDS011;8482;54.396;18.590;2023-03-23T20:39:10;6.35;;;2.67;;
16727;SDS011;8482;54.396;18.590;2023-03-23T20:41:45;7.80;;;2.80;;
16727;SDS011;8482;54.396;18.590;2023-03-23T20:44:14;4.97;;;2.30;;
16727;SDS011;8482;54.396;18.590;2023-03-23T20:46:42;7.38;;;2.47;;
16727;SDS011;8482;54.396;18.590;2023-03-23T20:49:14;4.15;;;2.20;;
16727;SDS011;8482;54.396;18.590;2023-03-23T20:51:42;6.32;;;2.53;;
16727;SDS011;8482;54.396;18.590;2023-03-23T20:54:08;5.30;;;2.20;;
16727;SDS011;8482;54.396;18.590;2023-03-23T20:56:37;7.07;;;2.50;;
16727;SDS011;8482;54.396;18.590;2023-03-23T20:59:04;4.53;;;2.38;;
16727;SDS011;8482;54.396;18.590;2023-03-23T21:01:30;7.00;;;2.40;;
16727;SDS011;8482;54.396;18.590;2023-03-23T21:03:57;6.35;;;2.35;;
16727;SDS011;8482;54.396;18.590;2023-03-23T21:06:24;6.55;;;2.35;;
16727;SDS011;8482;54.396;18.590;2023-03-23T21:08:52;4.45;;;1.98;;
16727;SDS011;8482;54.396;18.590;2023-03-23T21:11:21;6.55;;;2.50;;
16727;SDS011;8482;54.396;18.590;2023-03-23T21:13:49;8.80;;;2.85;;
16727;SDS011;8482;54.396;18.590;2023-03-23T21:16:16;6.43;;;2.13;;
16727;SDS011;8482;54.396;18.590;2023-03-23T21:18:43;3.95;;;1.92;;
16727;SDS011;8482;54.396;18.590;2023-03-23T21:21:10;5.50;;;2.33;;
16727;SDS011;8482;54.396;18.590;2023-03-23T21:23:39;5.72;;;2.30;;
16727;SDS011;8482;54.396;18.590;2023-03-23T21:26:10;4.18;;;2.05;;
16727;SDS011;8482;54.396;18.590;2023-03-23T21:28:42;4.35;;;1.83;;
16727;SDS011;8482;54.396;18.590;2023-03-23T21:31:10;5.00;;;2.13;;
16727;SDS011;8482;54.396;18.590;2023-03-23T21:33:36;4.40;;;2.10;;
16727;SDS011;8482;54.396;18.590;2023-03-23T21:36:02;6.38;;;2.25;;
16727;SDS011;8482;54.396;18.590;2023-03-23T21:38:28;4.45;;;2.05;;
16727;SDS011;8482;54.396;18.590;2023-03-23T21:40:55;6.95;;;2.58;;
16727;SDS011;8482;54.396;18.590;2023-03-23T21:43:24;7.10;;;2.22;;
16727;SDS011;8482;54.396;18.590;2023-03-23T21:45:52;6.30;;;2.38;;
16727;SDS011;8482;54.396;18.590;2023-03-23T21:48:25;6.47;;;2.38;;
16727;SDS011;8482;54.396;18.590;2023-03-23T21:50:51;7.25;;;2.17;;
16727;SDS011;8482;54.396;18.590;2023-03-23T21:53:18;7.07;;;2.47;;
16727;SDS011;8482;54.396;18.590;2023-03-23T21:55:45;4.00;;;2.00;;
16727;SDS011;8482;54.396;18.590;2023-03-23T21:58:22;5.60;;;2.35;;
16727;SDS011;8482;54.396;18.590;2023-03-23T22:00:53;5.50;;;1.80;;
16727;SDS011;8482;54.396;18.590;2023-03-23T22:03:20;4.65;;;2.05;;
16727;SDS011;8482;54.396;18.590;2023-03-23T22:05:52;6.07;;;2.22;;
16727;SDS011;8482;54.396;18.590;2023-03-23T22:08:22;4.68;;;2.15;;
16727;SDS011;8482;54.396;18.590;2023-03-23T22:10:52;4.75;;;2.20;;
16727;SDS011;8482;54.396;18.590;2023-03-23T22:13:26;5.65;;;2.22;;
16727;SDS011;8482;54.396;18.590;2023-03-23T22:15:58;4.40;;;2.28;;
16727;SDS011;8482;54.396;18.590;2023-03-23T22:18:26;7.10;;;2.38;;
16727;SDS011;8482;54.396;18.590;2023-03-23T22:20:52;5.65;;;2.40;;
16727;SDS011;8482;54.396;18.590;2023-03-23T22:23:18;5.80;;;2.90;;
16727;SDS011;8482;54.396;18.590;2023-03-23T22:25:44;5.32;;;2.45;;
16727;SDS011;8482;54.396;18.590;2023-03-23T22:28:10;6.00;;;2.10;;
16727;SDS011;8482;54.396;18.590;2023-03-23T22:30:36;5.63;;;2.13;;
16727;SDS011;8482;54.396;18.590;2023-03-23T22:33:02;6.82;;;2.45;;
16727;SDS011;8482;54.396;18.590;2023-03-23T22:35:28;5.43;;;2.35;;
16727;SDS011;8482;54.396;18.590;2023-03-23T22:37:57;5.47;;;1.85;;
16727;SDS011;8482;54.396;18.590;2023-03-23T22:40:23;5.70;;;1.85;;
16727;SDS011;8482;54.396;18.590;2023-03-23T22:42:49;4.32;;;1.90;;
16727;SDS011;8482;54.396;18.590;2023-03-23T22:45:16;5.47;;;1.90;;
16727;SDS011;8482;54.396;18.590;2023-03-23T22:47:42;3.53;;;2.03;;
16727;SDS011;8482;54.396;18.590;2023-03-23T22:50:08;5.35;;;2.13;;
16727;SDS011;8482;54.396;18.590;2023-03-23T22:52:35;4.53;;;2.03;;
16727;SDS011;8482;54.396;18.590;2023-03-23T22:55:02;5.82;;;2.20;;
16727;SDS011;8482;54.396;18.590;2023-03-23T22:57:30;4.55;;;2.22;;
16727;SDS011;8482;54.396;18.590;2023-03-23T22:59:56;3.72;;;1.73;;
16727;SDS011;8482;54.396;18.590;2023-03-23T23:02:23;4.32;;;2.08;;
16727;SDS011;8482;54.396;18.590;2023-03-23T23:04:49;5.28;;;1.88;;
16727;SDS011;8482;54.396;18.590;2023-03-23T23:07:16;5.18;;;1.98;;
16727;SDS011;8482;54.396;18.590;2023-03-23T23:09:44;3.20;;;1.83;;
16727;SDS011;8482;54.396;18.590;2023-03-23T23:12:11;3.38;;;1.77;;
16727;SDS011;8482;54.396;18.590;2023-03-23T23:14:38;3.03;;;1.65;;
16727;SDS011;8482;54.396;18.590;2023-03-23T23:17:07;3.80;;;2.00;;
16727;SDS011;8482;54.396;18.590;2023-03-23T23:19:34;4.47;;;1.88;;
16727;SDS011;8482;54.396;18.590;2023-03-23T23:22:02;4.45;;;2.08;;